createdAt,value
2022-08-05T00:01:35.949Z,2.27
2022-08-05T00:04:05.249Z,2.20
2022-08-05T00:06:36.149Z,2.20
2022-08-05T00:09:03.711Z,2.40
2022-08-05T00:11:35.007Z,2.23
2022-08-05T00:14:17.091Z,2.83
2022-08-05T00:16:52.743Z,2.47
2022-08-05T00:19:22.150Z,2.67
2022-08-05T00:21:49.101Z,2.47
2022-08-05T00:24:16.107Z,2.43
2022-08-05T00:26:51.813Z,2.23
2022-08-05T00:29:19.111Z,2.30
2022-08-05T00:32:09.350Z,2.10
2022-08-05T00:34:54.969Z,2.13
2022-08-05T00:37:22.678Z,2.60
2022-08-05T00:39:58.454Z,2.07
2022-08-05T00:42:33.216Z,2.47
2022-08-05T00:45:00.479Z,2.30
2022-08-05T00:47:52.844Z,2.20
2022-08-05T00:50:14.238Z,2.20
2022-08-05T00:52:41.762Z,2.57
2022-08-05T00:55:12.322Z,2.50
2022-08-05T00:57:55.488Z,2.30
2022-08-05T01:00:25.993Z,2.37
2022-08-05T01:02:53.064Z,1.90
2022-08-05T01:05:19.754Z,2.17
2022-08-05T01:08:29.870Z,2.07
2022-08-05T01:10:41.224Z,2.20
2022-08-05T01:13:57.535Z,2.37
2022-08-05T01:16:31.558Z,2.57
2022-08-05T01:19:04.393Z,2.20
2022-08-05T01:21:42.708Z,1.90
2022-08-05T01:24:59.442Z,2.30
2022-08-05T01:27:55.341Z,2.10
2022-08-05T01:30:34.074Z,2.13
2022-08-05T01:33:03.981Z,1.90
2022-08-05T01:35:51.577Z,2.27
2022-08-05T01:38:27.598Z,2.30
2022-08-05T01:41:01.515Z,2.20
2022-08-05T01:43:28.946Z,2.03
2022-08-05T01:45:57.815Z,2.00
2022-08-05T01:48:28.592Z,2.30
2022-08-05T01:50:55.978Z,2.33
2022-08-05T01:53:54.734Z,2.63
2022-08-05T01:56:11.465Z,2.27
2022-08-05T01:58:44.636Z,2.63
2022-08-05T02:01:13.385Z,2.60
2022-08-05T02:03:44.459Z,2.30
2022-08-05T02:06:33.377Z,2.60
2022-08-05T02:08:59.352Z,2.63
2022-08-05T02:11:33.349Z,2.20
2022-08-05T02:14:01.317Z,2.47
2022-08-05T02:16:42.190Z,2.70
2022-08-05T02:19:34.741Z,2.13
2022-08-05T02:22:25.383Z,2.53
2022-08-05T02:24:56.270Z,2.70
2022-08-05T02:27:30.026Z,2.50
2022-08-05T02:30:13.962Z,2.70
2022-08-05T02:32:42.288Z,2.37
2022-08-05T02:35:14.574Z,2.70
2022-08-05T02:37:47.788Z,2.43
2022-08-05T02:40:21.750Z,2.43
2022-08-05T02:42:52.646Z,2.70
2022-08-05T02:45:21.539Z,2.80
2022-08-05T02:48:07.018Z,2.93
2022-08-05T02:50:43.655Z,2.50
2022-08-05T02:53:12.029Z,2.67
2022-08-05T02:55:54.114Z,2.80
2022-08-05T02:58:23.476Z,2.77
2022-08-05T03:00:55.904Z,3.13
2022-08-05T03:03:23.428Z,3.00
2022-08-05T03:06:54.361Z,2.73
2022-08-05T03:08:42.793Z,3.17
2022-08-05T03:11:55.421Z,2.70
2022-08-05T03:14:08.136Z,3.03
2022-08-05T03:16:35.789Z,3.10
2022-08-05T03:19:12.669Z,3.37
2022-08-05T03:21:49.341Z,2.43
2022-08-05T03:24:29.388Z,2.60
2022-08-05T03:26:58.442Z,2.70
2022-08-05T03:29:45.796Z,3.00
2022-08-05T03:32:14.347Z,3.23
2022-08-05T03:34:50.461Z,3.10
2022-08-05T03:37:18.981Z,2.97
2022-08-05T03:39:59.214Z,3.20
2022-08-05T03:42:29.110Z,3.43
2022-08-05T03:44:58.517Z,3.40
2022-08-05T03:47:25.607Z,2.97
2022-08-05T03:50:01.871Z,3.50
2022-08-05T03:52:38.087Z,3.93
2022-08-05T03:56:06.097Z,3.93
2022-08-05T03:58:16.894Z,4.30
2022-08-05T04:00:51.535Z,3.93
2022-08-05T04:03:28.403Z,3.70
2022-08-05T04:05:56.495Z,3.83
2022-08-05T04:08:34.682Z,4.00
2022-08-05T04:11:03.457Z,4.23
2022-08-05T04:13:50.544Z,4.40
2022-08-05T04:16:23.981Z,3.90
2022-08-05T04:18:53.986Z,4.33
2022-08-05T04:22:09.432Z,4.70
2022-08-05T04:24:08.875Z,4.37
2022-08-05T04:26:35.757Z,4.73
2022-08-05T04:29:07.316Z,5.70
2022-08-05T04:31:38.574Z,4.93
2022-08-05T04:34:31.813Z,5.00
2022-08-05T04:36:52.928Z,5.47
2022-08-05T04:39:19.681Z,5.83
2022-08-05T04:41:48.036Z,6.10
2022-08-05T04:44:14.977Z,6.13
2022-08-05T04:46:48.444Z,5.80
2022-08-05T04:49:15.238Z,5.93
2022-08-05T04:51:44.102Z,5.60
2022-08-05T04:54:12.201Z,6.17
2022-08-05T04:56:39.143Z,5.77
2022-08-05T04:59:14.026Z,5.67
2022-08-05T05:02:35.092Z,6.10
2022-08-05T05:04:38.519Z,7.23
2022-08-05T05:07:15.962Z,7.37
2022-08-05T05:09:44.001Z,7.70
2022-08-05T05:12:11.519Z,6.60
2022-08-05T05:14:38.334Z,6.97
2022-08-05T05:17:19.891Z,7.77
2022-08-05T05:19:50.460Z,9.43
2022-08-05T05:22:23.964Z,7.93
2022-08-05T05:24:57.335Z,10.37
2022-08-05T05:27:45.067Z,8.67
2022-08-05T05:30:31.542Z,9.67
2022-08-05T05:33:09.310Z,9.47
2022-08-05T05:35:47.631Z,10.17
2022-08-05T05:38:14.650Z,9.00
2022-08-05T05:40:51.233Z,9.77
2022-08-05T05:43:22.067Z,8.40
2022-08-05T05:46:13.757Z,8.90
2022-08-05T05:48:44.254Z,7.97
2022-08-05T05:51:15.646Z,10.07
2022-08-05T05:53:54.329Z,8.90
2022-08-05T05:56:32.289Z,8.40
2022-08-05T05:59:03.331Z,8.60
2022-08-05T06:01:37.417Z,5.10
2022-08-05T06:04:12.168Z,6.10
2022-08-05T06:06:41.772Z,5.50
2022-08-05T06:09:08.839Z,7.57
2022-08-05T06:11:35.416Z,5.50
2022-08-05T06:14:06.048Z,5.03
2022-08-05T06:16:37.122Z,7.50
2022-08-05T06:19:05.718Z,5.17
2022-08-05T06:21:36.580Z,5.67
2022-08-05T06:24:04.685Z,5.67
2022-08-05T06:26:33.910Z,8.37
2022-08-05T06:29:06.060Z,5.67
2022-08-05T06:31:49.103Z,6.40
2022-08-05T06:34:19.820Z,8.10
2022-08-05T06:36:58.243Z,5.43
2022-08-05T06:39:27.008Z,7.97
2022-08-05T06:41:57.332Z,7.90
2022-08-05T06:44:25.426Z,7.27
2022-08-05T06:46:52.669Z,8.50
2022-08-05T06:49:21.537Z,4.20
2022-08-05T06:52:07.861Z,5.20
2022-08-05T06:54:54.393Z,8.63
2022-08-05T06:57:58.098Z,6.73
2022-08-05T07:00:09.861Z,6.67
2022-08-05T07:02:46.833Z,6.73
2022-08-05T07:05:18.922Z,7.13
2022-08-05T07:07:49.320Z,7.60
2022-08-05T07:10:16.452Z,5.33
2022-08-05T07:13:02.606Z,5.30
2022-08-05T07:16:01.184Z,7.70
2022-08-05T07:18:31.536Z,7.27
2022-08-05T07:20:58.456Z,6.30
2022-08-05T07:23:31.510Z,6.73
2022-08-05T07:25:58.060Z,7.13
2022-08-05T07:28:25.312Z,4.90
2022-08-05T07:30:55.049Z,11.73
2022-08-05T07:33:36.763Z,6.63
2022-08-05T07:36:21.254Z,7.23
2022-08-05T07:38:48.977Z,5.53
2022-08-05T07:42:09.649Z,6.50
2022-08-05T07:44:12.079Z,5.10
2022-08-05T07:46:48.170Z,6.90
2022-08-05T07:49:15.297Z,6.10
2022-08-05T07:51:53.841Z,6.47
2022-08-05T07:54:30.195Z,4.87
2022-08-05T07:57:14.881Z,5.97
2022-08-05T07:59:46.991Z,5.00
2022-08-05T08:02:17.574Z,4.17
2022-08-05T08:04:51.478Z,4.30
2022-08-05T08:07:22.373Z,3.93
2022-08-05T08:09:52.372Z,5.40
2022-08-05T08:12:33.540Z,5.30
2022-08-05T08:15:13.819Z,4.27
2022-08-05T08:17:46.140Z,4.37
2022-08-05T08:20:42.649Z,3.70
2022-08-05T08:23:07.533Z,4.70
2022-08-05T08:25:59.945Z,4.33
2022-08-05T08:28:37.192Z,4.27
2022-08-05T08:31:18.564Z,3.47
2022-08-05T08:33:46.125Z,3.60
2022-08-05T08:36:39.052Z,3.30
2022-08-05T08:39:06.147Z,2.63
2022-08-05T08:41:52.326Z,2.47
2022-08-05T08:45:18.096Z,4.63
2022-08-05T08:47:46.811Z,3.73
2022-08-05T08:51:03.523Z,3.37
2022-08-05T08:52:59.588Z,2.97
2022-08-05T08:56:01.590Z,3.83
2022-08-05T08:58:16.012Z,3.17
2022-08-05T09:00:42.961Z,3.47
2022-08-05T09:03:11.752Z,2.60
2022-08-05T09:06:07.904Z,3.23
2022-08-05T09:08:30.233Z,2.53
2022-08-05T09:10:57.925Z,2.20
2022-08-05T09:13:24.741Z,3.20
2022-08-05T09:15:58.348Z,5.40
2022-08-05T09:18:25.626Z,2.80
2022-08-05T09:20:52.219Z,2.43
2022-08-05T09:23:21.664Z,2.63
2022-08-05T09:26:03.234Z,3.37
2022-08-05T09:28:33.188Z,2.30
2022-08-05T09:31:43.177Z,2.37
2022-08-05T09:34:01.583Z,2.43
2022-08-05T09:36:56.317Z,2.80
2022-08-05T09:39:39.465Z,2.50
2022-08-05T09:42:20.269Z,2.13
2022-08-05T09:44:56.542Z,2.70
2022-08-05T09:47:25.792Z,3.00
2022-08-05T09:50:01.074Z,2.87
2022-08-05T09:52:34.350Z,2.87
2022-08-05T09:55:06.350Z,2.60
2022-08-05T09:57:48.815Z,3.93
2022-08-05T10:00:15.726Z,2.73
2022-08-05T10:02:42.226Z,2.63
2022-08-05T10:05:14.840Z,2.33
2022-08-05T10:08:11.210Z,2.80
2022-08-05T10:10:50.360Z,2.67
2022-08-05T10:13:47.159Z,2.87
2022-08-05T10:16:34.327Z,2.40
2022-08-05T10:19:09.438Z,2.37
2022-08-05T10:21:40.183Z,2.20
2022-08-05T10:24:13.446Z,2.10
2022-08-05T10:26:51.185Z,2.20
2022-08-05T10:29:23.573Z,2.60
2022-08-05T10:32:53.761Z,2.83
2022-08-05T10:34:40.897Z,2.13
2022-08-05T10:37:10.433Z,4.53
2022-08-05T10:40:03.375Z,2.87
2022-08-05T10:42:34.353Z,2.60
2022-08-05T10:45:01.447Z,3.10
2022-08-05T10:47:36.961Z,2.23
2022-08-05T10:50:32.455Z,2.27
2022-08-05T10:53:01.179Z,2.43
2022-08-05T10:55:30.300Z,2.53
2022-08-05T10:58:11.346Z,2.67
2022-08-05T11:00:42.205Z,2.07
2022-08-05T11:03:24.924Z,2.30
2022-08-05T11:06:05.064Z,2.90
2022-08-05T11:08:37.267Z,2.83
2022-08-05T11:11:42.066Z,2.63
2022-08-05T11:15:01.286Z,2.73
2022-08-05T11:17:57.515Z,2.77
2022-08-05T11:20:31.548Z,2.27
2022-08-05T11:23:05.851Z,2.67
2022-08-05T11:26:04.838Z,2.37
2022-08-05T11:28:20.316Z,1.87
2022-08-05T11:30:55.631Z,2.10
2022-08-05T11:33:46.706Z,2.83
2022-08-05T11:36:33.992Z,2.50
2022-08-05T11:39:01.585Z,2.27
2022-08-05T11:41:57.942Z,2.20
2022-08-05T11:44:40.609Z,2.03
2022-08-05T11:47:11.015Z,1.80
2022-08-05T11:49:43.005Z,2.23
2022-08-05T11:52:11.790Z,1.80
2022-08-05T11:54:40.530Z,1.90
2022-08-05T11:57:39.359Z,1.80
2022-08-05T11:59:55.145Z,1.60
2022-08-05T12:02:30.015Z,1.97
2022-08-05T12:04:59.497Z,1.47
2022-08-05T12:08:09.256Z,1.80
2022-08-05T12:10:18.522Z,1.90
2022-08-05T12:12:58.160Z,1.40
2022-08-05T12:15:33.974Z,3.10
2022-08-05T12:18:10.471Z,2.10
2022-08-05T12:20:38.963Z,1.83
2022-08-05T12:23:12.097Z,1.70
2022-08-05T12:25:51.656Z,1.90
2022-08-05T12:28:36.640Z,2.03
2022-08-05T12:31:04.333Z,2.13
2022-08-05T12:33:36.367Z,1.90
2022-08-05T12:36:08.558Z,1.60
2022-08-05T12:38:40.089Z,2.07
2022-08-05T12:41:13.318Z,2.00
2022-08-05T12:43:58.139Z,2.17
2022-08-05T12:46:29.439Z,2.40
2022-08-05T12:49:01.246Z,1.70
2022-08-05T12:52:12.864Z,1.73
2022-08-05T12:54:32.907Z,1.83
2022-08-05T12:57:01.986Z,1.70
2022-08-05T12:59:46.834Z,2.30
2022-08-05T13:02:21.632Z,2.00
2022-08-05T13:04:55.363Z,1.97
2022-08-05T13:07:57.579Z,1.90
2022-08-05T13:10:15.110Z,2.13
2022-08-05T13:12:57.114Z,1.80
2022-08-05T13:15:41.736Z,1.70
2022-08-05T13:18:19.614Z,1.63
2022-08-05T13:20:47.509Z,1.63
2022-08-05T13:23:16.361Z,1.60
2022-08-05T13:25:52.744Z,1.80
2022-08-05T13:28:27.029Z,1.83
2022-08-05T13:30:53.831Z,2.10
2022-08-05T13:34:24.542Z,1.97
2022-08-05T13:36:09.326Z,2.10
2022-08-05T13:38:42.528Z,1.80
2022-08-05T13:41:12.624Z,1.90
2022-08-05T13:43:45.341Z,1.93
2022-08-05T13:46:50.941Z,1.90
2022-08-05T13:49:11.682Z,2.07
2022-08-05T13:51:40.852Z,1.80
2022-08-05T13:54:13.487Z,2.23
2022-08-05T13:56:50.743Z,2.27
2022-08-05T13:59:24.097Z,1.60
2022-08-05T14:01:57.444Z,1.90
2022-08-05T14:04:49.472Z,1.93
2022-08-05T14:07:55.718Z,1.37
2022-08-05T14:10:27.991Z,1.87
2022-08-05T14:12:57.538Z,1.63
2022-08-05T14:16:08.907Z,2.13
2022-08-05T14:18:14.645Z,2.20
2022-08-05T14:20:47.163Z,1.63
2022-08-05T14:23:15.301Z,1.60
2022-08-05T14:25:53.812Z,1.80
2022-08-05T14:28:26.347Z,1.60
2022-08-05T14:30:54.156Z,1.93
2022-08-05T14:33:22.600Z,1.60
2022-08-05T14:35:51.730Z,1.63
2022-08-05T14:38:33.333Z,1.53
2022-08-05T14:41:05.989Z,1.70
2022-08-05T14:43:59.244Z,2.43
2022-08-05T14:46:27.993Z,2.73
2022-08-05T14:48:57.763Z,1.60
2022-08-05T14:51:26.487Z,1.27
2022-08-05T14:54:27.664Z,1.67
2022-08-05T14:56:46.814Z,1.60
2022-08-05T14:59:14.263Z,1.23
2022-08-05T15:01:48.987Z,1.50
2022-08-05T15:04:17.139Z,1.20
2022-08-05T15:06:49.410Z,1.00
2022-08-05T15:09:50.458Z,1.07
2022-08-05T15:12:05.611Z,1.07
2022-08-05T15:14:35.034Z,1.17
2022-08-05T15:17:09.889Z,1.40
2022-08-05T15:19:41.285Z,1.30
2022-08-05T15:22:16.002Z,1.17
2022-08-05T15:24:42.663Z,1.13
2022-08-05T15:27:09.507Z,1.00
2022-08-05T15:29:42.091Z,1.20
2022-08-05T15:32:08.842Z,1.20
2022-08-05T15:34:35.358Z,1.13
2022-08-05T15:37:06.478Z,1.10
2022-08-05T15:41:01.186Z,1.27
2022-08-05T15:42:53.498Z,1.10
2022-08-05T15:45:07.623Z,0.90
2022-08-05T15:47:36.597Z,1.10
2022-08-05T15:50:04.032Z,1.00
2022-08-05T15:52:52.886Z,1.03
2022-08-05T15:55:19.479Z,1.00
2022-08-05T15:57:52.062Z,0.97
2022-08-05T16:00:26.271Z,0.97
2022-08-05T16:02:59.596Z,0.90
2022-08-05T16:05:28.158Z,0.83
2022-08-05T16:07:55.243Z,1.03
2022-08-05T16:10:25.482Z,0.80
2022-08-05T16:12:53.390Z,0.70
2022-08-05T16:15:22.869Z,0.87
2022-08-05T16:17:57.560Z,1.00
2022-08-05T16:20:25.154Z,1.20
2022-08-05T16:22:51.658Z,1.10
2022-08-05T16:25:18.332Z,1.10
2022-08-05T16:28:00.152Z,1.00
2022-08-05T16:30:32.394Z,1.10
2022-08-05T16:33:00.115Z,0.83
2022-08-05T16:35:28.370Z,1.07
2022-08-05T16:38:03.497Z,0.97
2022-08-05T16:40:47.828Z,0.80
2022-08-05T16:43:24.738Z,1.27
2022-08-05T16:46:03.850Z,0.80
2022-08-05T16:48:37.804Z,0.80
2022-08-05T16:51:10.224Z,1.13
2022-08-05T16:54:02.985Z,1.00
2022-08-05T16:56:26.972Z,0.90
2022-08-05T16:58:53.887Z,1.00
2022-08-05T17:01:20.962Z,1.00
2022-08-05T17:03:47.756Z,1.00
2022-08-05T17:06:16.541Z,0.87
2022-08-05T17:08:52.145Z,0.73
2022-08-05T17:11:23.959Z,0.90
2022-08-05T17:14:00.543Z,0.87
2022-08-05T17:16:36.334Z,1.03
2022-08-05T17:19:07.355Z,0.70
2022-08-05T17:21:36.850Z,0.80
2022-08-05T17:24:19.324Z,1.13
2022-08-05T17:26:56.306Z,0.90
2022-08-05T17:29:33.313Z,0.77
2022-08-05T17:32:06.794Z,0.88
2022-08-05T17:34:35.085Z,0.90
2022-08-05T17:37:01.690Z,1.10
2022-08-05T17:39:34.393Z,0.98
2022-08-05T17:42:18.621Z,1.00
2022-08-05T17:44:50.435Z,1.20
2022-08-05T17:47:22.027Z,0.90
2022-08-05T17:49:52.039Z,0.70
2022-08-05T17:52:29.709Z,1.00
2022-08-05T17:54:56.292Z,0.93
2022-08-05T17:57:22.957Z,0.90
2022-08-05T17:59:59.783Z,1.00
2022-08-05T18:02:32.939Z,1.10
2022-08-05T18:05:02.878Z,1.00
2022-08-05T18:07:41.781Z,0.82
2022-08-05T18:10:10.968Z,1.00
2022-08-05T18:12:37.924Z,0.70
2022-08-05T18:15:05.651Z,1.02
2022-08-05T18:17:58.889Z,1.25
2022-08-05T18:20:29.259Z,1.00
2022-08-05T18:23:00.589Z,1.17
2022-08-05T18:25:39.124Z,0.80
2022-08-05T18:28:06.461Z,1.17
2022-08-05T18:30:33.645Z,0.90
2022-08-05T18:33:00.815Z,0.80
2022-08-05T18:36:01.103Z,1.20
2022-08-05T18:38:16.534Z,1.00
2022-08-05T18:41:55.194Z,1.17
2022-08-05T18:43:38.310Z,1.07
2022-08-05T18:46:10.021Z,0.90
2022-08-05T18:48:41.753Z,0.90
2022-08-05T18:52:05.151Z,1.10
2022-08-05T18:54:14.526Z,1.37
2022-08-05T18:56:41.899Z,0.90
2022-08-05T18:59:43.058Z,1.30
2022-08-05T19:02:04.963Z,1.17
2022-08-05T19:05:01.595Z,1.17
2022-08-05T19:07:46.391Z,1.10
2022-08-05T19:10:14.420Z,1.10
2022-08-05T19:12:41.380Z,1.40
2022-08-05T19:15:45.037Z,1.60
2022-08-05T19:18:08.579Z,1.50
2022-08-05T19:20:37.082Z,1.50
2022-08-05T19:23:08.597Z,1.50
2022-08-05T19:26:01.131Z,1.60
2022-08-05T19:28:29.179Z,1.47
2022-08-05T19:30:55.913Z,1.40
2022-08-05T19:33:35.076Z,1.40
2022-08-05T19:36:02.616Z,1.40
2022-08-05T19:38:29.162Z,1.30
2022-08-05T19:40:55.636Z,1.50
2022-08-05T19:44:04.028Z,1.47
2022-08-05T19:46:16.655Z,1.30
2022-08-05T19:48:55.566Z,1.30
2022-08-05T19:51:56.308Z,1.30
2022-08-05T19:54:27.045Z,1.30
2022-08-05T19:56:57.781Z,1.23
2022-08-05T19:59:55.339Z,1.50
2022-08-05T20:02:11.046Z,1.70
2022-08-05T20:04:37.693Z,1.50
2022-08-05T20:07:10.302Z,1.50
2022-08-05T20:09:53.904Z,1.53
2022-08-05T20:12:23.083Z,1.47
2022-08-05T20:14:52.256Z,1.50
2022-08-05T20:17:23.748Z,1.90
2022-08-05T20:19:57.048Z,1.60
2022-08-05T20:22:26.626Z,1.60
2022-08-05T20:24:54.895Z,2.03
2022-08-05T20:27:27.059Z,1.67
2022-08-05T20:29:58.472Z,1.57
2022-08-05T20:32:29.134Z,1.20
2022-08-05T20:34:56.321Z,1.50
2022-08-05T20:38:05.039Z,1.43
2022-08-05T20:40:10.953Z,1.23
2022-08-05T20:42:37.571Z,1.37
2022-08-05T20:45:05.429Z,1.70
2022-08-05T20:47:32.815Z,1.27
2022-08-05T20:50:02.073Z,1.40
2022-08-05T20:52:29.097Z,1.60
2022-08-05T20:55:15.788Z,1.20
2022-08-05T20:57:44.280Z,1.27
2022-08-05T21:00:40.284Z,1.20
2022-08-05T21:03:06.843Z,1.40
2022-08-05T21:05:47.727Z,1.50
2022-08-05T21:08:21.051Z,1.50
2022-08-05T21:10:53.557Z,1.60
2022-08-05T21:13:26.052Z,1.73
2022-08-05T21:16:03.733Z,1.70
2022-08-05T21:18:30.513Z,1.50
2022-08-05T21:20:57.662Z,1.40
2022-08-05T21:23:24.596Z,1.40
2022-08-05T21:25:51.615Z,1.23
2022-08-05T21:28:23.642Z,1.47
2022-08-05T21:30:50.789Z,1.57
2022-08-05T21:33:22.009Z,1.30
2022-08-05T21:35:56.085Z,1.57
2022-08-05T21:38:25.750Z,1.50
2022-08-05T21:40:52.358Z,1.40
2022-08-05T21:43:24.515Z,1.50
2022-08-05T21:45:56.748Z,1.40
2022-08-05T21:48:24.536Z,1.60
2022-08-05T21:50:53.145Z,1.80
2022-08-05T21:53:21.035Z,1.70
2022-08-05T21:56:04.910Z,1.47
2022-08-05T21:58:34.453Z,1.23
2022-08-05T22:01:04.943Z,1.23
2022-08-05T22:03:48.711Z,1.27
2022-08-05T22:06:22.564Z,1.47
2022-08-05T22:08:52.085Z,1.77
2022-08-05T22:11:34.782Z,1.33
2022-08-05T22:14:05.727Z,1.20
2022-08-05T22:16:51.543Z,1.20
2022-08-05T22:20:02.523Z,1.27
2022-08-05T22:22:05.858Z,1.23
2022-08-05T22:24:52.230Z,1.10
2022-08-05T22:28:10.182Z,1.40
2022-08-05T22:30:25.241Z,1.23
2022-08-05T22:33:02.096Z,1.20
2022-08-05T22:35:47.753Z,1.10
2022-08-05T22:38:14.772Z,1.03
2022-08-05T22:40:42.007Z,1.20
2022-08-05T22:43:16.321Z,1.20
2022-08-05T22:46:08.781Z,1.00
2022-08-05T22:48:39.207Z,1.20
2022-08-05T22:51:06.845Z,1.50
2022-08-05T22:53:35.801Z,1.00
2022-08-05T22:56:02.909Z,1.10
2022-08-05T22:58:29.578Z,1.00
2022-08-05T23:00:59.571Z,1.20
2022-08-05T23:03:58.489Z,1.33
2022-08-05T23:06:12.614Z,1.20
2022-08-05T23:08:40.210Z,1.10
2022-08-05T23:11:07.231Z,1.30
2022-08-05T23:13:35.474Z,1.10
2022-08-05T23:16:03.781Z,0.90
2022-08-05T23:18:30.433Z,1.20
2022-08-05T23:20:58.858Z,1.20
2022-08-05T23:23:26.035Z,1.27
2022-08-05T23:25:56.529Z,1.30
2022-08-05T23:28:28.866Z,1.20
2022-08-05T23:31:15.730Z,1.40
2022-08-05T23:34:04.557Z,1.10
2022-08-05T23:36:40.189Z,1.20
2022-08-05T23:39:17.325Z,1.40
2022-08-05T23:41:50.844Z,1.30
2022-08-05T23:44:19.715Z,1.20
2022-08-05T23:46:49.313Z,1.20
2022-08-05T23:49:23.889Z,1.60
2022-08-05T23:52:18.979Z,1.20
2022-08-05T23:54:47.850Z,1.50
2022-08-05T23:57:15.230Z,1.80
